Time;durP1;ratioP1;P1;durP2;ratioP2;P2;SDS_P1;SDS_P2;PMS_P1;PMS_P2;Temp;Humidity;BMP_temperature;BMP_pressure;BME280_temperature;BME280_humidity;BME280_pressure;Samples;Min_cycle;Max_cycle;Signal;HPM_P1;HPM_P2
2022/11/29 00:01:24;;;;;;;27.02;14.13;;;;;;;5.97;100.00;101388.09;5040184;28;20044;-64
2022/11/29 00:03:51;;;;;;;30.13;15.13;;;;;;;5.96;100.00;101387.22;5040623;28;20021;-64
2022/11/29 00:06:22;;;;;;;28.13;14.60;;;;;;;5.96;100.00;101394.09;5037907;28;20196;-70
2022/11/29 00:08:48;;;;;;;29.95;14.10;;;;;;;5.93;100.00;101400.88;5035469;28;20096;-70
2022/11/29 00:12:10;;;;;;;31.00;13.95;;;;;;;5.95;100.00;101392.31;5030008;28;20071;-70
2022/11/29 00:14:03;;;;;;;27.33;13.18;;;;;;;5.91;100.00;101389.56;5024871;28;20061;-70
2022/11/29 00:16:29;;;;;;;27.13;14.00;;;;;;;5.88;100.00;101396.28;5023330;28;20292;-70
2022/11/29 00:18:54;;;;;;;29.48;15.35;;;;;;;5.88;100.00;101399.78;5026337;28;20144;-70
2022/11/29 00:21:19;;;;;;;25.40;14.50;;;;;;;5.90;100.00;101405.03;5025686;28;20368;-70
2022/11/29 00:23:44;;;;;;;29.17;15.15;;;;;;;5.91;100.00;101399.06;5022278;28;20053;-70
2022/11/29 00:26:10;;;;;;;30.98;14.85;;;;;;;5.92;100.00;101403.38;5026157;28;20042;-70
2022/11/29 00:28:35;;;;;;;29.55;13.82;;;;;;;5.90;100.00;101397.25;5022112;28;20320;-70
2022/11/29 00:31:15;;;;;;;27.20;14.63;;;;;;;5.89;100.00;101408.41;5021188;28;20145;-70
2022/11/29 00:33:41;;;;;;;31.10;14.70;;;;;;;5.88;100.00;101410.13;5028038;28;20280;-70
2022/11/29 00:36:06;;;;;;;31.70;15.40;;;;;;;5.91;100.00;101405.09;5033598;28;20043;-70
2022/11/29 00:38:31;;;;;;;38.92;16.55;;;;;;;5.93;100.00;101402.59;5024297;28;20653;-70
2022/11/29 00:40:57;;;;;;;40.38;17.85;;;;;;;5.95;100.00;101405.25;5023227;28;20025;-70
2022/11/29 00:43:22;;;;;;;36.97;16.85;;;;;;;5.98;100.00;101402.84;5029785;28;20049;-70
2022/11/29 00:45:47;;;;;;;36.70;16.05;;;;;;;5.99;100.00;101408.09;5033410;28;20021;-70
2022/11/29 00:48:12;;;;;;;35.75;14.50;;;;;;;5.95;100.00;101411.31;5026314;28;20053;-70
2022/11/29 00:50:38;;;;;;;30.42;14.75;;;;;;;5.90;100.00;101405.91;5025392;28;20026;-71
2022/11/29 00:53:03;;;;;;;32.25;15.63;;;;;;;5.88;100.00;101409.22;5036922;28;20028;-70
2022/11/29 00:55:28;;;;;;;33.47;15.32;;;;;;;5.86;100.00;101409.13;5034802;28;20033;-70
2022/11/29 00:57:54;;;;;;;35.00;14.70;;;;;;;5.84;100.00;101403.00;5024857;28;20026;-70
2022/11/29 01:00:19;;;;;;;30.38;14.48;;;;;;;5.83;100.00;101406.38;5030154;28;20045;-70
2022/11/29 01:02:45;;;;;;;31.77;15.73;;;;;;;5.82;100.00;101407.22;5037261;28;20025;-70
2022/11/29 01:05:10;;;;;;;31.42;16.83;;;;;;;5.83;100.00;101402.94;5033967;28;20033;-70
2022/11/29 01:07:35;;;;;;;29.63;15.77;;;;;;;5.84;100.00;101397.84;5034712;28;20371;-70
2022/11/29 01:10:00;;;;;;;28.65;15.50;;;;;;;5.87;100.00;101402.28;5038537;28;20029;-69
2022/11/29 01:12:26;;;;;;;35.72;16.20;;;;;;;5.90;100.00;101412.78;5030666;28;20304;-70
2022/11/29 01:14:51;;;;;;;30.73;15.65;;;;;;;5.91;100.00;101406.81;5027678;28;20026;-70
2022/11/29 01:17:16;;;;;;;27.85;15.48;;;;;;;5.92;100.00;101416.31;5025876;28;20037;-70
2022/11/29 01:19:42;;;;;;;29.30;15.35;;;;;;;5.91;100.00;101412.84;5023292;28;20064;-70
2022/11/29 01:22:07;;;;;;;35.13;15.98;;;;;;;5.91;100.00;101414.56;5022095;28;20279;-70
2022/11/29 01:24:32;;;;;;;31.02;16.67;;;;;;;5.90;100.00;101411.06;5020022;28;20045;-70
2022/11/29 01:26:58;;;;;;;32.13;15.82;;;;;;;5.92;100.00;101411.16;5024901;28;20176;-70
2022/11/29 01:29:23;;;;;;;34.22;16.67;;;;;;;5.92;100.00;101413.72;5022983;28;21434;-70
2022/11/29 01:31:48;;;;;;;38.05;18.50;;;;;;;5.93;100.00;101415.53;5021779;28;20253;-70
2022/11/29 01:34:14;;;;;;;31.80;17.65;;;;;;;5.94;100.00;101412.13;5021719;28;20087;-70
2022/11/29 01:36:39;;;;;;;33.38;16.98;;;;;;;5.97;100.00;101419.13;5036727;28;20177;-70
2022/11/29 01:39:05;;;;;;;29.58;15.15;;;;;;;5.96;100.00;101420.84;5035560;28;20091;-70
2022/11/29 01:41:32;;;;;;;38.08;16.52;;;;;;;5.92;100.00;101421.50;5042093;28;20053;-70
2022/11/29 01:44:13;;;;;;;34.42;16.20;;;;;;;5.92;100.00;101424.09;5039135;28;20040;-70
2022/11/29 01:46:43;;;;;;;29.48;16.20;;;;;;;5.91;100.00;101424.91;5039375;28;20033;-70
2022/11/29 01:49:16;;;;;;;31.15;16.17;;;;;;;5.91;100.00;101430.09;5039242;28;20075;-69
2022/11/29 01:51:46;;;;;;;35.00;17.10;;;;;;;5.88;100.00;101429.91;5039720;28;20053;-70
2022/11/29 01:54:13;;;;;;;33.25;16.30;;;;;;;5.84;100.00;101430.56;5026713;28;20021;-70
2022/11/29 01:56:38;;;;;;;29.02;16.15;;;;;;;5.82;100.00;101429.59;5038241;28;20072;-70
2022/11/29 01:59:09;;;;;;;35.75;18.13;;;;;;;5.82;100.00;101434.75;5032339;28;20030;-70
2022/11/29 02:01:35;;;;;;;29.77;15.68;;;;;;;5.79;100.00;101443.25;5034279;28;20034;-70
2022/11/29 02:04:01;;;;;;;44.53;17.50;;;;;;;5.79;100.00;101450.13;5036182;28;20319;-70
2022/11/29 02:06:28;;;;;;;40.55;17.77;;;;;;;5.79;100.00;101452.69;5034112;28;20034;-70
2022/11/29 02:08:53;;;;;;;47.63;16.90;;;;;;;5.78;100.00;101466.44;5039735;28;20024;-70
2022/11/29 02:11:58;;;;;;;37.22;17.00;;;;;;;5.76;100.00;101471.53;5030986;28;20017;-70
2022/11/29 02:14:46;;;;;;;40.58;16.30;;;;;;;5.72;100.00;101470.50;5033170;28;20315;-70
2022/11/29 02:17:42;;;;;;;30.55;16.08;;;;;;;5.70;100.00;101460.88;5036048;28;20025;-70
2022/11/29 02:20:54;;;;;;;49.80;16.17;;;;;;;5.72;100.00;101459.22;5034167;28;20033;-70
2022/11/29 02:23:26;;;;;;;39.30;16.40;;;;;;;5.73;100.00;101468.78;5040296;28;20278;-70
2022/11/29 02:26:17;;;;;;;45.10;16.83;;;;;;;5.70;100.00;101466.03;5032706;28;20021;-70
2022/11/29 02:29:01;;;;;;;40.75;16.63;;;;;;;5.68;100.00;101463.38;5022081;28;20165;-70
2022/11/29 02:31:48;;;;;;;37.45;17.00;;;;;;;5.71;100.00;101471.28;5024331;28;20108;-70
2022/11/29 02:34:22;;;;;;;45.03;17.95;;;;;;;5.70;100.00;101472.09;5022570;28;20041;-70
2022/11/29 02:37:10;;;;;;;40.45;18.63;;;;;;;5.72;100.00;101478.25;5023185;28;20604;-63
2022/11/29 02:39:57;;;;;;;49.72;19.13;;;;;;;5.75;100.00;101465.47;5022176;28;20021;-64
2022/11/29 02:42:25;;;;;;;33.33;18.20;;;;;;;5.77;100.00;101473.31;5019382;28;20298;-64
2022/11/29 02:45:06;;;;;;;51.30;18.73;;;;;;;5.78;100.00;101461.25;5023840;28;20064;-64
2022/11/29 02:48:09;;;;;;;39.50;19.60;;;;;;;5.82;100.00;101468.38;5024598;28;20411;-64
2022/11/29 02:51:01;;;;;;;42.90;19.30;;;;;;;5.85;100.00;101463.38;5034665;28;20036;-64
2022/11/29 02:53:41;;;;;;;43.30;18.73;;;;;;;5.88;100.00;101468.69;5024705;28;20046;-64
2022/11/29 02:56:23;;;;;;;45.15;19.25;;;;;;;5.87;100.00;101470.41;5031360;28;20045;-64
2022/11/29 02:59:04;;;;;;;44.53;19.35;;;;;;;5.87;100.00;101479.88;5040743;28;20029;-64
2022/11/29 03:01:52;;;;;;;44.10;18.75;;;;;;;5.90;100.00;101475.72;5028288;28;20089;-64
2022/11/29 03:04:32;;;;;;;38.53;18.38;;;;;;;5.91;100.00;101477.53;5032162;28;20030;-64
2022/11/29 03:07:39;;;;;;;37.42;18.65;;;;;;;5.93;100.00;101485.34;5036564;28;20029;-64
2022/11/29 03:10:20;;;;;;;36.15;18.73;;;;;;;5.94;100.00;101487.16;5038406;28;20041;-64
2022/11/29 03:12:51;;;;;;;40.38;19.30;;;;;;;5.91;100.00;101474.94;5040453;28;20030;-64
2022/11/29 03:15:31;;;;;;;39.40;19.50;;;;;;;5.88;100.00;101489.38;5032605;28;20040;-64
2022/11/29 03:18:13;;;;;;;35.50;18.95;;;;;;;5.88;100.00;101486.78;5028315;28;20037;-64
2022/11/29 03:21:11;;;;;;;37.90;18.92;;;;;;;5.86;100.00;101493.59;5024647;28;21559;-64
2022/11/29 03:23:42;;;;;;;40.72;19.30;;;;;;;5.85;100.00;101497.91;5025975;28;20038;-64
2022/11/29 03:26:19;;;;;;;56.45;20.33;;;;;;;5.85;100.00;101499.56;5023828;28;20281;-64
2022/11/29 03:28:54;;;;;;;35.28;19.42;;;;;;;5.83;100.00;101501.19;5024917;28;20091;-63
2022/11/29 03:31:36;;;;;;;49.38;19.30;;;;;;;5.80;100.00;101509.69;5024895;28;20032;-64
2022/11/29 03:34:12;;;;;;;54.13;20.25;;;;;;;5.77;100.00;101503.47;5025207;28;20221;-64
2022/11/29 03:36:57;;;;;;;40.05;19.67;;;;;;;5.74;100.00;101507.66;5023643;28;20076;-70
2022/11/29 03:39:40;;;;;;;59.03;21.70;;;;;;;5.71;100.00;101511.78;5025669;28;20088;-70
2022/11/29 03:42:12;;;;;;;40.20;19.30;;;;;;;5.67;100.00;101513.28;5025817;28;20037;-70
2022/11/29 03:44:49;;;;;;;42.90;18.75;;;;;;;5.68;100.00;101524.53;5026374;28;20042;-70
2022/11/29 03:47:22;;;;;;;61.00;20.05;;;;;;;5.64;100.00;101510.53;5024117;28;20045;-70
2022/11/29 03:49:55;;;;;;;33.95;18.33;;;;;;;5.62;100.00;101521.59;5028038;28;20048;-69
2022/11/29 03:52:27;;;;;;;39.78;18.67;;;;;;;5.61;100.00;101522.44;5030747;28;20056;-70
2022/11/29 03:55:20;;;;;;;57.45;19.98;;;;;;;5.63;100.00;101526.84;5032613;28;20026;-70
2022/11/29 03:58:09;;;;;;;43.58;18.27;;;;;;;5.66;100.00;101532.22;5029034;28;20057;-70
2022/11/29 04:00:47;;;;;;;37.90;18.10;;;;;;;5.69;100.00;101537.56;5025731;28;20022;-70
2022/11/29 04:03:50;;;;;;;58.90;18.65;;;;;;;5.71;100.00;101538.50;5037456;28;20521;-70
2022/11/29 04:06:44;;;;;;;68.18;19.48;;;;;;;5.70;100.00;101543.59;5033911;28;20037;-70
2022/11/29 04:09:29;;;;;;;62.67;20.15;;;;;;;5.67;100.00;101544.31;4999887;28;20055;-70
2022/11/29 04:12:12;;;;;;;45.75;18.75;;;;;;;5.66;100.00;101539.06;5027753;28;20017;-70
2022/11/29 04:14:44;;;;;;;66.15;20.35;;;;;;;5.63;100.00;101547.53;5035645;28;20187;-70
2022/11/29 04:17:42;;;;;;;45.83;20.40;;;;;;;5.63;100.00;101541.50;5032576;28;20034;-64
2022/11/29 04:20:26;;;;;;;38.58;18.92;;;;;;;5.60;100.00;101539.63;5033502;28;20813;-64
2022/11/29 04:23:16;;;;;;;64.88;19.67;;;;;;;5.57;100.00;101548.09;5028834;28;20318;-64
2022/11/29 04:26:18;;;;;;;58.15;19.58;;;;;;;5.57;100.00;101547.22;5036472;28;20063;-64
2022/11/29 04:28:57;;;;;;;62.70;19.60;;;;;;;5.55;100.00;101549.72;5040300;28;20213;-64
2022/11/29 04:31:32;;;;;;;58.72;18.25;;;;;;;5.52;100.00;101553.84;5036599;28;20100;-64
2022/11/29 04:34:22;;;;;;;48.78;18.77;;;;;;;5.49;100.00;101548.47;5038982;28;20095;-64
2022/11/29 04:36:53;;;;;;;53.40;19.60;;;;;;;5.47;100.00;101550.09;5036710;28;20108;-64
2022/11/29 04:39:55;;;;;;;73.53;19.30;;;;;;;5.47;100.00;101560.44;5036931;28;20056;-64
2022/11/29 04:42:28;;;;;;;46.65;19.48;;;;;;;5.48;100.00;101555.34;5011490;28;20045;-64
2022/11/29 04:45:07;;;;;;;51.25;18.92;;;;;;;5.48;100.00;101554.47;5026073;28;20080;-64
2022/11/29 04:47:47;;;;;;;47.80;17.90;;;;;;;5.48;100.00;101562.22;5030071;28;20072;-70
2022/11/29 04:50:31;;;;;;;36.20;18.50;;;;;;;5.47;100.00;101563.00;5031103;28;20036;-70
2022/11/29 04:53:14;;;;;;;61.83;18.35;;;;;;;5.44;100.00;101565.44;5031834;28;20153;-70
2022/11/29 04:55:51;;;;;;;45.03;17.70;;;;;;;5.43;100.00;101568.81;5028161;28;20044;-70
2022/11/29 04:58:45;;;;;;;44.20;18.20;;;;;;;5.43;100.00;101569.72;5037787;28;20029;-70
2022/11/29 05:01:37;;;;;;;44.40;17.13;;;;;;;5.41;100.00;101568.72;5026599;28;20097;-70
2022/11/29 05:04:35;;;;;;;36.42;17.13;;;;;;;5.42;100.00;101578.28;5036860;28;20029;-70
2022/11/29 05:07:14;;;;;;;41.53;17.70;;;;;;;5.40;100.00;101579.84;5034938;28;20224;-70
2022/11/29 05:09:45;;;;;;;33.35;16.92;;;;;;;5.40;100.00;101579.84;5036244;28;20021;-70
2022/11/29 05:12:25;;;;;;;41.70;17.42;;;;;;;5.39;100.00;101583.28;5034991;28;20042;-70
2022/11/29 05:15:08;;;;;;;37.20;16.50;;;;;;;5.38;100.00;101587.53;5026735;28;20303;-70
2022/11/29 05:17:57;;;;;;;42.75;17.35;;;;;;;5.40;100.00;101590.19;5033045;28;20039;-70
2022/11/29 05:20:39;;;;;;;45.28;16.98;;;;;;;5.38;100.00;101595.28;5034900;28;20018;-70
2022/11/29 05:23:23;;;;;;;35.08;16.95;;;;;;;5.30;100.00;101599.13;5033103;28;20278;-70
2022/11/29 05:26:03;;;;;;;36.60;17.77;;;;;;;5.25;100.00;101607.44;5032243;28;20103;-70
2022/11/29 05:28:50;;;;;;;38.40;18.15;;;;;;;5.21;100.00;101609.84;5020238;28;20085;-70
2022/11/29 05:31:53;;;;;;;36.65;16.77;;;;;;;5.21;100.00;101615.00;5028563;28;20030;-70
2022/11/29 05:35:01;;;;;;;35.13;17.25;;;;;;;5.25;100.00;101621.22;5035378;28;20033;-70
2022/11/29 05:37:34;;;;;;;36.38;16.75;;;;;;;5.26;100.00;101622.09;5037556;28;20340;-69
2022/11/29 05:40:37;;;;;;;39.15;17.95;;;;;;;5.28;100.00;101621.41;5043288;28;20034;-70
2022/11/29 05:43:17;;;;;;;35.17;17.42;;;;;;;5.30;100.00;101630.16;5042375;28;20072;-70
2022/11/29 05:46:06;;;;;;;32.72;17.25;;;;;;;5.33;100.00;101635.50;5025477;28;20299;-70
2022/11/29 05:48:46;;;;;;;33.10;17.50;;;;;;;5.35;100.00;101635.56;5022988;28;20077;-64
2022/11/29 05:51:39;;;;;;;33.20;16.27;;;;;;;5.32;100.00;101638.88;5031939;28;20021;-64
2022/11/29 05:54:04;;;;;;;33.88;16.42;;;;;;;5.33;100.00;101635.50;5034663;28;20048;-64
2022/11/29 05:56:47;;;;;;;37.88;17.85;;;;;;;5.34;100.00;101647.59;5031887;28;20200;-64
2022/11/29 05:59:19;;;;;;;33.28;17.77;;;;;;;5.35;100.00;101646.78;5022886;28;20052;-63
2022/11/29 06:02:10;;;;;;;33.10;17.48;;;;;;;5.37;100.00;101647.78;5032372;28;20049;-63
2022/11/29 06:05:22;;;;;;;30.65;17.63;;;;;;;5.41;100.00;101643.66;5031234;28;20029;-64
2022/11/29 06:07:54;;;;;;;30.77;17.48;;;;;;;5.41;100.00;101651.44;5036316;28;20081;-64
2022/11/29 06:10:28;;;;;;;38.53;17.50;;;;;;;5.41;100.00;101651.44;5034624;28;20138;-63
2022/11/29 06:13:08;;;;;;;31.40;17.60;;;;;;;5.40;100.00;101657.38;5040393;28;20076;-64
2022/11/29 06:16:03;;;;;;;35.90;17.92;;;;;;;5.43;100.00;101664.44;5023346;28;20424;-64
2022/11/29 06:19:02;;;;;;;31.25;17.27;;;;;;;5.44;100.00;101661.94;5035480;28;20017;-64
2022/11/29 06:21:49;;;;;;;30.13;18.07;;;;;;;5.49;100.00;101664.78;5031823;28;20041;-63
2022/11/29 06:24:34;;;;;;;30.63;17.83;;;;;;;5.48;100.00;101670.78;5033685;28;20600;-64
2022/11/29 06:27:27;;;;;;;32.58;18.63;;;;;;;5.48;100.00;101675.94;5043259;28;20044;-64
2022/11/29 06:30:05;;;;;;;31.77;17.85;;;;;;;5.49;100.00;101688.03;5028121;28;20022;-64
2022/11/29 06:33:00;;;;;;;35.80;18.55;;;;;;;5.46;100.00;101693.94;5031471;28;20025;-64
2022/11/29 06:35:34;;;;;;;30.45;17.33;;;;;;;5.45;100.00;101693.88;5042621;28;20027;-64
2022/11/29 06:38:11;;;;;;;28.58;17.85;;;;;;;5.46;100.00;101695.63;5030274;28;20034;-63
2022/11/29 06:40:36;;;;;;;31.88;18.13;;;;;;;5.45;100.00;101707.66;5031016;28;20284;-64
2022/11/29 06:43:02;;;;;;;35.38;19.05;;;;;;;5.47;100.00;101707.75;5033250;28;20042;-63
2022/11/29 06:45:27;;;;;;;30.38;17.20;;;;;;;5.47;100.00;101705.16;5031548;28;20052;-63
2022/11/29 06:48:02;;;;;;;32.50;17.80;;;;;;;5.49;100.00;101713.88;5030902;28;20025;-70
2022/11/29 06:50:52;;;;;;;33.83;17.55;;;;;;;5.50;100.00;101710.50;5033844;28;20184;-70
2022/11/29 06:53:42;;;;;;;36.33;18.88;;;;;;;5.52;100.00;101716.69;5029446;28;20068;-70
2022/11/29 06:56:20;;;;;;;32.47;17.85;;;;;;;5.51;100.00;101712.31;5033020;28;20052;-70
2022/11/29 06:59:01;;;;;;;32.03;18.02;;;;;;;5.51;100.00;101717.47;5038314;28;20235;-70
2022/11/29 07:01:38;;;;;;;33.95;18.50;;;;;;;5.51;100.00;101720.06;5026378;28;20284;-70
2022/11/29 07:04:19;;;;;;;30.33;18.13;;;;;;;5.53;100.00;101723.59;5033599;28;20138;-69
2022/11/29 07:06:44;;;;;;;34.70;17.92;;;;;;;5.53;100.00;101724.53;5042482;28;20064;-70
2022/11/29 07:09:15;;;;;;;35.72;18.98;;;;;;;5.54;100.00;101728.00;5029170;28;20038;-70
2022/11/29 07:11:41;;;;;;;34.63;18.27;;;;;;;5.54;100.00;101728.88;5025100;28;20040;-70
2022/11/29 07:14:08;;;;;;;33.55;18.63;;;;;;;5.55;100.00;101727.19;5025289;28;20307;-70
2022/11/29 07:16:55;;;;;;;36.60;17.48;;;;;;;5.59;100.00;101731.75;5024326;28;20145;-70
2022/11/29 07:19:43;;;;;;;35.17;17.60;;;;;;;5.63;100.00;101745.72;5025138;28;20264;-70
2022/11/29 07:22:19;;;;;;;36.60;19.20;;;;;;;5.64;100.00;101744.94;5026013;28;20288;-70
2022/11/29 07:24:55;;;;;;;38.90;18.10;;;;;;;5.65;100.00;101741.53;5022319;28;20031;-70
2022/11/29 07:27:24;;;;;;;48.08;21.98;;;;;;;5.66;100.00;101749.41;5024077;28;20052;-70
2022/11/29 07:30:15;;;;;;;50.47;22.90;;;;;;;5.69;100.00;101752.16;5028187;28;20046;-70
2022/11/29 07:33:12;;;;;;;41.58;21.33;;;;;;;5.71;100.00;101754.84;5017097;28;21157;-70
2022/11/29 07:35:55;;;;;;;48.05;20.80;;;;;;;5.66;100.00;101754.56;5024557;28;20100;-70
2022/11/29 07:38:42;;;;;;;39.05;19.23;;;;;;;5.65;100.00;101763.13;5025227;28;20064;-70
2022/11/29 07:41:23;;;;;;;40.63;20.15;;;;;;;5.63;100.00;101769.88;5024023;28;20038;-70
2022/11/29 07:44:09;;;;;;;44.63;20.50;;;;;;;5.65;100.00;101776.03;5033695;28;20036;-70
2022/11/29 07:46:35;;;;;;;43.38;19.65;;;;;;;5.66;100.00;101780.44;5032172;28;20041;-63
2022/11/29 07:49:00;;;;;;;43.45;20.52;;;;;;;5.68;100.00;101776.22;5026481;28;20040;-64
2022/11/29 07:51:25;;;;;;;46.83;20.48;;;;;;;5.68;100.00;101778.81;5036000;28;20319;-64
2022/11/29 07:53:51;;;;;;;43.00;19.73;;;;;;;5.67;100.00;101774.44;5034307;28;20041;-64
2022/11/29 07:56:16;;;;;;;37.78;18.73;;;;;;;5.69;100.00;101785.78;5040709;28;20284;-64
2022/11/29 07:58:42;;;;;;;41.92;19.58;;;;;;;5.69;100.00;101785.78;5034307;28;20314;-64
2022/11/29 08:01:07;;;;;;;44.17;19.42;;;;;;;5.70;100.00;101771.13;5030082;28;20102;-64
2022/11/29 08:03:34;;;;;;;40.65;19.77;;;;;;;5.70;100.00;101787.53;5030209;28;20021;-64
2022/11/29 08:06:00;;;;;;;43.67;19.63;;;;;;;5.70;100.00;101784.94;5033673;28;20026;-63
2022/11/29 08:08:25;;;;;;;40.55;19.60;;;;;;;5.70;100.00;101772.03;5032885;28;20344;-64
2022/11/29 08:10:50;;;;;;;40.00;19.23;;;;;;;5.69;100.00;101779.69;5035609;28;20038;-64
2022/11/29 08:13:19;;;;;;;46.58;19.40;;;;;;;5.69;100.00;101780.59;5035121;28;20026;-64
2022/11/29 08:15:46;;;;;;;48.22;20.40;;;;;;;5.70;100.00;101768.56;5024132;28;20038;-64
2022/11/29 08:18:12;;;;;;;53.22;20.75;;;;;;;5.66;100.00;101783.00;5033055;28;20022;-71
2022/11/29 08:20:38;;;;;;;41.80;21.27;;;;;;;5.67;100.00;101784.78;5030185;28;20125;-71
2022/11/29 08:23:03;;;;;;;47.28;21.27;;;;;;;5.66;100.00;101789.84;5035043;28;20238;-71
2022/11/29 08:25:28;;;;;;;48.83;20.95;;;;;;;5.65;100.00;101791.56;5030524;28;20195;-71
2022/11/29 08:27:55;;;;;;;42.92;20.02;;;;;;;5.65;100.00;101791.56;5034751;28;20260;-71
2022/11/29 08:30:21;;;;;;;54.63;20.35;;;;;;;5.64;100.00;101797.53;5034593;28;20092;-71
2022/11/29 08:32:48;;;;;;;45.28;20.92;;;;;;;5.66;100.00;101800.19;5030033;28;20041;-71
2022/11/29 08:35:14;;;;;;;49.00;21.38;;;;;;;5.67;100.00;101795.13;5033549;28;20046;-70
2022/11/29 08:37:39;;;;;;;51.50;21.65;;;;;;;5.67;100.00;101792.53;5033355;28;20107;-71
2022/11/29 08:40:05;;;;;;;47.47;21.95;;;;;;;5.70;100.00;101797.88;5029563;28;20033;-71
2022/11/29 08:42:31;;;;;;;44.80;21.27;;;;;;;5.71;100.00;101804.84;5021909;28;20034;-71
2022/11/29 08:44:56;;;;;;;51.63;22.60;;;;;;;5.75;100.00;101809.41;5023936;28;20108;-71
2022/11/29 08:47:36;;;;;;;48.05;21.45;;;;;;;5.79;100.00;101802.69;5029385;28;20029;-71
2022/11/29 08:50:11;;;;;;;59.10;21.98;;;;;;;5.84;100.00;101815.91;5026971;28;20305;-71
2022/11/29 08:55:26;;;;;;;50.65;21.02;;;;;;;5.84;100.00;101813.34;5029794;28;20072;-72
2022/11/29 08:57:52;;;;;;;47.42;21.60;;;;;;;5.87;100.00;101821.28;5035033;28;20033;-70
2022/11/29 09:00:20;;;;;;;47.15;21.23;;;;;;;5.88;100.00;101817.84;5028863;28;20061;-70
2022/11/29 09:02:45;;;;;;;49.08;21.65;;;;;;;5.93;100.00;101811.28;5028450;28;20391;-70
2022/11/29 09:05:11;;;;;;;55.35;23.17;;;;;;;5.96;100.00;101820.91;5029529;28;20037;-70
2022/11/29 09:07:37;;;;;;;51.35;22.23;;;;;;;5.97;100.00;101825.25;5030965;28;20030;-70
2022/11/29 09:10:06;;;;;;;49.25;21.85;;;;;;;6.00;100.00;101828.97;5029251;28;20295;-70
2022/11/29 09:12:32;;;;;;;56.25;22.50;;;;;;;6.02;100.00;101827.34;5036089;28;20174;-70
2022/11/29 09:14:57;;;;;;;54.88;22.73;;;;;;;6.02;100.00;101831.63;5026349;28;20041;-70
2022/11/29 09:17:23;;;;;;;51.92;22.40;;;;;;;6.02;100.00;101827.34;5024718;28;20105;-70
2022/11/29 09:19:48;;;;;;;50.97;22.20;;;;;;;6.02;100.00;101836.81;5034895;28;20075;-70
2022/11/29 09:22:13;;;;;;;53.17;22.00;;;;;;;6.02;100.00;101840.28;5036456;28;20029;-70
2022/11/29 09:24:39;;;;;;;55.85;23.58;;;;;;;6.06;100.00;101839.66;5027312;28;20252;-70
2022/11/29 09:27:05;;;;;;;56.50;23.02;;;;;;;6.08;100.00;101842.34;5023005;28;20026;-70
2022/11/29 09:29:30;;;;;;;49.85;22.17;;;;;;;6.11;100.00;101846.81;5023423;28;20022;-70
2022/11/29 09:31:55;;;;;;;51.38;22.40;;;;;;;6.14;100.00;101852.16;5031858;28;20169;-70
2022/11/29 09:34:21;;;;;;;55.72;23.88;;;;;;;6.17;100.00;101848.06;5026321;28;20021;-69
2022/11/29 09:36:47;;;;;;;49.25;22.05;;;;;;;6.20;100.00;101858.59;5028771;28;20835;-70
2022/11/29 09:39:12;;;;;;;54.17;22.38;;;;;;;6.23;100.00;101848.41;5024682;28;20147;-70
2022/11/29 09:42:01;;;;;;;57.28;23.23;;;;;;;6.28;100.00;101860.72;5030380;28;20049;-70
2022/11/29 09:45:00;;;;;;;53.15;22.05;;;;;;;6.30;100.00;101865.19;5028185;28;20041;-70
2022/11/29 09:47:56;;;;;;;58.33;21.88;;;;;;;6.34;100.00;101869.72;5019048;28;20094;-70
2022/11/29 09:50:26;;;;;;;58.38;21.85;;;;;;;6.33;100.00;101873.13;5028346;28;20280;-71
2022/11/29 09:53:10;;;;;;;;;;;;;;;6.38;100.00;101879.44;5035062;28;20111;-70
2022/11/29 09:55:54;;;;;;;56.33;19.98;;;;;;;6.40;100.00;101876.94;5031806;28;19916;-70
2022/11/29 09:58:25;;;;;;;61.03;19.15;;;;;;;6.41;100.00;101874.44;5040591;28;20083;-70
2022/11/29 10:00:55;;;;;;;56.72;21.05;;;;;;;6.40;100.00;101875.25;5031478;28;20025;-70
2022/11/29 10:03:37;;;;;;;60.20;20.80;;;;;;;6.40;100.00;101877.84;5039669;28;20030;-70
2022/11/29 10:06:29;;;;;;;57.38;17.52;;;;;;;6.43;100.00;101882.28;5039709;28;20026;-70
2022/11/29 10:09:02;;;;;;;44.38;16.75;;;;;;;6.42;100.00;101881.41;5038846;28;20071;-70
2022/11/29 10:11:42;;;;;;;46.33;19.35;;;;;;;6.44;100.00;101882.41;5041126;28;20164;-70
2022/11/29 10:14:16;;;;;;;;;;;;;;;6.53;100.00;101883.72;5030226;28;20160;-70
2022/11/29 10:16:53;;;;;;;40.03;15.05;;;;;;;6.52;100.00;101877.66;5033368;28;19982;-70
2022/11/29 10:19:36;;;;;;;46.58;15.35;;;;;;;6.56;100.00;101879.63;5034807;28;20088;-70
2022/11/29 10:22:08;;;;;;;56.17;15.82;;;;;;;6.57;100.00;101881.38;5027844;28;20021;-70
2022/11/29 10:24:36;;;;;;;47.92;17.27;;;;;;;6.60;100.00;101878.06;5037019;28;20112;-70
2022/11/29 10:27:13;;;;;;;44.70;16.63;;;;;;;6.64;100.00;101873.97;5032755;28;20272;-65
2022/11/29 10:29:38;;;;;;;57.83;18.33;;;;;;;6.67;100.00;101872.44;5030707;28;20032;-64
2022/11/29 10:32:12;;;;;;;42.83;16.77;;;;;;;6.71;100.00;101870.94;5032095;28;20026;-64
2022/11/29 10:34:38;;;;;;;44.03;17.00;;;;;;;6.72;100.00;101862.31;5034266;28;20105;-65
2022/11/29 10:37:11;;;;;;;49.65;17.88;;;;;;;6.72;100.00;101867.50;5030475;28;20237;-65
2022/11/29 10:39:45;;;;;;;45.50;18.20;;;;;;;6.75;100.00;101857.34;5036250;28;20087;-65
2022/11/29 10:42:47;;;;;;;48.25;18.65;;;;;;;6.79;100.00;101867.97;5031828;28;20029;-65
2022/11/29 10:45:27;;;;;;;47.50;18.35;;;;;;;6.84;100.00;101869.91;5030645;28;20185;-64
2022/11/29 10:47:57;;;;;;;45.40;17.55;;;;;;;6.87;100.00;101870.06;5033950;28;20304;-65
2022/11/29 10:50:25;;;;;;;41.47;15.40;;;;;;;6.90;100.00;101875.44;5039456;28;20100;-64
2022/11/29 10:52:54;;;;;;;44.28;14.88;;;;;;;6.94;100.00;101883.44;5030916;28;20275;-64
2022/11/29 10:55:21;;;;;;;48.28;15.88;;;;;;;6.96;100.00;101880.94;5027015;28;20042;-64
2022/11/29 10:58:06;;;;;;;45.60;17.63;;;;;;;6.96;100.00;101879.22;5039504;28;20044;-70
2022/11/29 11:00:45;;;;;;;49.05;17.13;;;;;;;6.96;100.00;101874.03;5028091;28;20284;-70
2022/11/29 11:03:40;;;;;;;39.67;16.88;;;;;;;6.99;100.00;101877.63;5032665;28;20047;-70
2022/11/29 11:06:08;;;;;;;38.97;15.65;;;;;;;6.99;100.00;101881.09;5028493;28;20044;-70
2022/11/29 11:08:34;;;;;;;40.88;16.52;;;;;;;7.00;100.00;101882.91;5032121;28;20278;-70
2022/11/29 11:11:02;;;;;;;39.15;15.93;;;;;;;7.00;100.00;101880.31;5033333;28;20296;-70
2022/11/29 11:13:29;;;;;;;43.97;15.88;;;;;;;7.00;100.00;101887.19;5036766;28;20066;-70
2022/11/29 11:15:57;;;;;;;41.78;16.30;;;;;;;7.01;100.00;101878.59;5035526;28;20034;-70
2022/11/29 11:18:27;;;;;;;46.05;16.08;;;;;;;7.02;100.00;101878.66;5026967;28;20208;-69
2022/11/29 11:20:55;;;;;;;43.67;17.27;;;;;;;7.03;100.00;101874.41;5033697;28;20017;-69
2022/11/29 11:23:32;;;;;;;41.63;16.83;;;;;;;7.04;100.00;101879.66;5026802;28;20044;-69
2022/11/29 11:26:04;;;;;;;38.75;15.43;;;;;;;7.06;100.00;101880.63;5034097;28;20021;-70
2022/11/29 11:28:31;;;;;;;39.30;14.98;;;;;;;7.09;100.00;101883.38;5034458;28;20283;-69
2022/11/29 11:31:04;;;;;;;43.63;16.98;;;;;;;7.10;100.00;101887.78;5037386;28;20085;-70
2022/11/29 11:33:47;;;;;;;42.90;16.05;;;;;;;7.12;100.00;101883.53;5029143;28;20188;-70
2022/11/29 11:36:18;;;;;;;41.92;17.40;;;;;;;7.07;100.00;101885.00;5044226;28;20111;-64
2022/11/29 11:39:11;;;;;;;43.08;16.48;;;;;;;7.05;100.00;101893.50;5029283;28;20087;-64
2022/11/29 11:44:39;;;;;;;48.05;18.10;;;;;;;7.06;100.00;101887.53;5034996;28;20112;-64
2022/11/29 11:47:06;;;;;;;41.28;17.27;;;;;;;7.09;100.00;101892.88;5032104;28;20032;-64
2022/11/29 11:49:37;;;;;;;47.20;16.58;;;;;;;7.12;100.00;101901.69;5029002;28;20296;-62
2022/11/29 11:52:05;;;;;;;43.28;16.58;;;;;;;7.14;100.00;101902.69;5029118;28;20227;-62
2022/11/29 11:54:31;;;;;;;44.00;17.02;;;;;;;7.17;100.00;101901.06;5032304;28;20025;-62